Time;durP1;ratioP1;P1;durP2;ratioP2;P2;SDS_P1;SDS_P2;PMS_P1;PMS_P2;Temp;Humidity;BMP_temperature;BMP_pressure;BME280_temperature;BME280_humidity;BME280_pressure;Samples;Min_cycle;Max_cycle;Signal;HPM_P1;HPM_P2
2022/04/15 00:01:54;;;;;;;0.70;0.70;;;12.50;99.90;;;;;;5032887;28;20546;-82
2022/04/15 00:04:20;;;;;;;0.73;0.60;;;12.50;99.90;;;;;;5033240;28;20458;-82
2022/04/15 00:06:47;;;;;;;0.40;0.40;;;12.50;99.90;;;;;;5033215;28;20435;-82
2022/04/15 00:09:16;;;;;;;1.03;0.67;;;12.40;99.90;;;;;;5033381;28;20486;-82
2022/04/15 00:11:44;;;;;;;0.47;0.47;;;12.40;99.90;;;;;;5032796;28;20982;-82
2022/04/15 00:14:12;;;;;;;0.57;0.53;;;12.40;99.90;;;;;;5032821;28;20451;-82
2022/04/15 00:16:43;;;;;;;1.13;0.70;;;12.30;99.90;;;;;;5033085;28;20446;-82
2022/04/15 00:19:11;;;;;;;1.00;0.47;;;12.30;99.90;;;;;;5032830;28;20439;-81
2022/04/15 00:21:37;;;;;;;0.80;0.43;;;12.30;99.90;;;;;;5032981;28;20470;-82
2022/04/15 00:24:05;;;;;;;0.50;0.50;;;12.30;99.90;;;;;;5032716;28;20950;-82
2022/04/15 00:26:33;;;;;;;0.70;0.30;;;12.20;99.90;;;;;;5033029;28;20446;-82
2022/04/15 00:29:00;;;;;;;0.50;0.30;;;12.20;99.90;;;;;;5032692;28;20474;-82
2022/04/15 00:31:27;;;;;;;0.80;0.60;;;12.20;99.90;;;;;;5032889;28;20475;-83
2022/04/15 00:33:53;;;;;;;1.50;0.60;;;12.20;99.90;;;;;;5032969;28;20492;-82
2022/04/15 00:36:20;;;;;;;0.67;0.37;;;12.20;99.90;;;;;;5032940;28;20450;-82
2022/04/15 00:38:47;;;;;;;0.63;0.40;;;12.20;99.90;;;;;;5032863;28;20450;-82
2022/04/15 00:41:15;;;;;;;2.30;0.50;;;12.20;99.90;;;;;;5032813;28;20482;-82
2022/04/15 00:43:43;;;;;;;1.03;0.60;;;12.20;99.90;;;;;;5032543;28;20544;-83
2022/04/15 00:46:11;;;;;;;0.53;0.40;;;12.20;99.90;;;;;;5033050;28;20518;-82
2022/04/15 00:48:38;;;;;;;2.10;0.97;;;12.20;99.90;;;;;;5032765;28;20482;-82
2022/04/15 00:51:06;;;;;;;1.47;0.70;;;12.10;99.90;;;;;;5032745;28;20721;-82
2022/04/15 00:53:33;;;;;;;0.30;0.30;;;12.10;99.90;;;;;;5032732;28;20450;-82
2022/04/15 00:56:03;;;;;;;0.50;0.40;;;12.00;99.90;;;;;;5032745;28;20462;-82
2022/04/15 00:58:34;;;;;;;0.40;0.40;;;12.00;99.90;;;;;;5032778;28;20486;-82
2022/04/15 01:01:02;;;;;;;2.43;0.50;;;11.90;99.90;;;;;;5032383;28;21002;-82
2022/04/15 01:03:30;;;;;;;1.17;0.50;;;11.90;99.90;;;;;;5033020;28;20446;-82
2022/04/15 01:05:59;;;;;;;0.40;0.40;;;11.90;99.90;;;;;;5036214;28;20450;-83
2022/04/15 01:08:29;;;;;;;1.13;0.50;;;11.80;99.90;;;;;;5035762;28;20458;-82
2022/04/15 01:10:58;;;;;;;2.47;0.57;;;11.80;99.90;;;;;;5036378;28;20519;-82
2022/04/15 01:13:26;;;;;;;0.53;0.50;;;11.80;99.90;;;;;;5036623;28;20458;-82
2022/04/15 01:15:55;;;;;;;2.50;1.00;;;11.80;99.90;;;;;;5036047;28;20497;-82
2022/04/15 01:18:23;;;;;;;0.40;0.37;;;11.80;99.90;;;;;;5035985;28;20457;-82
2022/04/15 01:20:51;;;;;;;0.60;0.50;;;11.80;99.90;;;;;;5035845;28;20557;-82
2022/04/15 01:23:20;;;;;;;0.90;0.90;;;11.80;99.90;;;;;;5035546;28;20450;-82
2022/04/15 01:25:47;;;;;;;1.13;0.40;;;11.80;99.90;;;;;;5035844;28;20455;-82
2022/04/15 01:28:16;;;;;;;0.40;0.40;;;11.90;99.90;;;;;;5035533;28;20435;-82
2022/04/15 01:30:45;;;;;;;0.70;0.60;;;11.90;99.90;;;;;;5035361;28;21036;-82
2022/04/15 01:33:12;;;;;;;3.60;0.50;;;11.80;99.90;;;;;;5035695;28;20509;-82
2022/04/15 01:35:39;;;;;;;0.70;0.60;;;11.90;99.90;;;;;;5035657;28;20450;-82
2022/04/15 01:38:10;;;;;;;1.60;0.50;;;11.80;99.90;;;;;;5035618;28;20451;-82
2022/04/15 01:40:39;;;;;;;1.07;0.60;;;11.90;99.90;;;;;;5035555;28;20476;-82
2022/04/15 01:43:06;;;;;;;2.80;0.70;;;11.80;99.90;;;;;;5035014;28;21008;-82
2022/04/15 01:45:34;;;;;;;0.47;0.37;;;11.80;99.90;;;;;;5035235;28;20782;-83
2022/04/15 01:48:01;;;;;;;0.87;0.60;;;11.90;99.90;;;;;;5035519;28;20446;-82
2022/04/15 01:50:29;;;;;;;2.57;0.43;;;11.90;99.90;;;;;;5035010;28;20844;-82
2022/04/15 01:52:56;;;;;;;0.40;0.40;;;11.90;99.90;;;;;;5035381;28;20478;-82
2022/04/15 01:55:22;;;;;;;0.73;0.70;;;11.90;99.90;;;;;;5034976;28;20958;-82
2022/04/15 01:57:50;;;;;;;1.27;0.47;;;11.90;99.90;;;;;;5035306;28;20439;-82
2022/04/15 02:00:18;;;;;;;1.43;0.60;;;12.00;99.90;;;;;;5034835;28;20934;-82
2022/04/15 02:02:45;;;;;;;0.50;0.50;;;12.00;99.90;;;;;;5034894;28;20442;-82
2022/04/15 02:05:11;;;;;;;1.33;0.47;;;12.00;99.90;;;;;;5035367;28;20453;-82
2022/04/15 02:07:38;;;;;;;0.50;0.40;;;12.00;99.90;;;;;;5034782;28;20801;-82
2022/04/15 02:10:07;;;;;;;0.80;0.50;;;12.00;99.90;;;;;;5035215;28;20482;-82
2022/04/15 02:12:33;;;;;;;1.53;0.50;;;12.00;99.90;;;;;;5034950;28;20450;-82
2022/04/15 02:15:01;;;;;;;0.60;0.40;;;12.00;99.90;;;;;;5034600;28;20451;-82
2022/04/15 02:17:28;;;;;;;0.57;0.57;;;12.00;99.90;;;;;;5034821;28;20450;-82
2022/04/15 02:19:55;;;;;;;1.47;0.60;;;12.00;99.90;;;;;;5034804;28;20469;-82
2022/04/15 02:22:22;;;;;;;0.70;0.40;;;12.00;99.90;;;;;;5034963;28;20475;-82
2022/04/15 02:24:48;;;;;;;0.30;0.30;;;11.90;99.90;;;;;;5034987;28;20458;-82
2022/04/15 02:27:15;;;;;;;0.40;0.40;;;11.90;99.90;;;;;;5034580;28;20466;-82
2022/04/15 02:29:42;;;;;;;0.53;0.40;;;11.90;99.90;;;;;;5034788;28;20478;-82
2022/04/15 02:32:10;;;;;;;0.60;0.60;;;11.90;99.90;;;;;;5034211;28;20466;-82
2022/04/15 02:34:37;;;;;;;2.80;0.80;;;11.80;99.90;;;;;;5034742;28;20450;-82
2022/04/15 02:37:04;;;;;;;0.50;0.50;;;11.80;99.90;;;;;;5034438;28;20454;-82
2022/04/15 02:39:32;;;;;;;0.40;0.40;;;11.80;99.90;;;;;;5034213;28;20942;-81
2022/04/15 02:42:00;;;;;;;1.33;0.43;;;11.80;99.90;;;;;;5034360;28;20600;-82
2022/04/15 02:44:27;;;;;;;1.03;0.93;;;11.90;99.90;;;;;;5033951;28;20484;-82
2022/04/15 02:46:57;;;;;;;1.27;0.73;;;11.90;99.90;;;;;;5034528;28;20447;-82
2022/04/15 02:49:26;;;;;;;0.40;0.40;;;11.90;99.90;;;;;;5034216;28;20909;-82
2022/04/15 02:51:53;;;;;;;0.70;0.50;;;11.90;99.90;;;;;;5034140;28;20462;-82
2022/04/15 02:54:20;;;;;;;1.40;0.60;;;11.90;99.90;;;;;;5033899;28;20439;-82
2022/04/15 02:56:47;;;;;;;0.50;0.50;;;11.80;99.90;;;;;;5034143;28;20447;-83
2022/04/15 02:59:16;;;;;;;0.63;0.60;;;11.80;99.90;;;;;;5034141;28;20455;-83
2022/04/15 03:01:43;;;;;;;0.43;0.43;;;11.80;99.90;;;;;;5033975;28;20504;-82
2022/04/15 03:04:09;;;;;;;1.80;0.40;;;11.70;99.90;;;;;;5034009;28;20450;-82
2022/04/15 03:06:38;;;;;;;0.80;0.80;;;11.80;99.90;;;;;;5033967;28;20446;-82
2022/04/15 03:09:05;;;;;;;0.97;0.57;;;11.70;99.90;;;;;;5033587;28;20427;-82
2022/04/15 03:11:32;;;;;;;1.40;0.87;;;11.70;99.90;;;;;;5033516;28;20481;-83
2022/04/15 03:13:59;;;;;;;0.77;0.77;;;11.70;99.90;;;;;;5033853;28;20817;-82
2022/04/15 03:16:25;;;;;;;0.70;0.47;;;11.70;99.90;;;;;;5033763;28;20461;-82
2022/04/15 03:18:52;;;;;;;1.03;0.40;;;11.70;99.90;;;;;;5033801;28;20447;-82
2022/04/15 03:21:19;;;;;;;0.73;0.60;;;11.60;99.90;;;;;;5033452;28;20470;-82
2022/04/15 03:23:47;;;;;;;1.37;0.70;;;11.60;99.90;;;;;;5033680;28;20448;-82
2022/04/15 03:26:13;;;;;;;0.60;0.60;;;11.60;99.90;;;;;;5033033;28;20455;-82
2022/04/15 03:28:40;;;;;;;0.80;0.70;;;11.60;99.90;;;;;;5033589;28;20462;-82
2022/04/15 03:31:09;;;;;;;1.03;0.60;;;11.60;99.90;;;;;;5033437;28;20540;-82
2022/04/15 03:33:35;;;;;;;0.30;0.30;;;11.50;99.90;;;;;;5033566;28;20458;-82
2022/04/15 03:36:02;;;;;;;0.50;0.50;;;11.50;99.90;;;;;;5033520;28;20454;-82
2022/04/15 03:38:29;;;;;;;5.70;0.70;;;11.60;99.90;;;;;;5033238;28;20439;-82
2022/04/15 03:40:57;;;;;;;0.77;0.47;;;11.50;99.90;;;;;;5033450;28;20463;-82
2022/04/15 03:43:24;;;;;;;0.40;0.30;;;11.50;99.90;;;;;;5033276;28;20479;-83
2022/04/15 03:45:51;;;;;;;0.40;0.40;;;11.50;99.90;;;;;;5033443;28;20526;-82
2022/04/15 03:48:18;;;;;;;1.50;0.77;;;11.50;99.90;;;;;;5033601;28;20530;-82
2022/04/15 03:50:44;;;;;;;0.90;0.80;;;11.50;99.90;;;;;;5032912;28;20498;-82
2022/04/15 03:53:11;;;;;;;0.63;0.60;;;11.60;99.90;;;;;;5033361;28;20821;-82
2022/04/15 03:55:38;;;;;;;0.70;0.60;;;11.60;99.90;;;;;;5033555;28;20439;-82
2022/04/15 03:58:06;;;;;;;0.57;0.37;;;11.60;99.90;;;;;;5033310;28;20458;-82
2022/04/15 04:00:33;;;;;;;0.57;0.57;;;11.60;99.90;;;;;;5033190;28;20474;-82
2022/04/15 04:02:59;;;;;;;0.50;0.40;;;11.60;99.90;;;;;;5033221;28;20457;-82
2022/04/15 04:05:26;;;;;;;1.00;1.00;;;11.50;99.90;;;;;;5033242;28;20458;-83
2022/04/15 04:07:53;;;;;;;1.37;0.90;;;11.40;99.90;;;;;;5032876;28;20906;-82
2022/04/15 04:10:20;;;;;;;0.60;0.53;;;11.30;99.90;;;;;;5033043;28;20486;-82
2022/04/15 04:12:48;;;;;;;1.07;0.40;;;11.30;99.90;;;;;;5032946;28;20426;-82
2022/04/15 04:15:16;;;;;;;0.40;0.40;;;11.20;99.90;;;;;;5032842;28;20458;-82
2022/04/15 04:17:43;;;;;;;0.43;0.43;;;11.10;99.90;;;;;;5033091;28;20451;-82
2022/04/15 04:20:12;;;;;;;0.50;0.50;;;11.10;99.90;;;;;;5033031;28;20526;-82
2022/04/15 04:22:40;;;;;;;1.37;0.43;;;11.00;99.90;;;;;;5033010;28;20486;-83
2022/04/15 04:25:09;;;;;;;0.67;0.60;;;10.90;99.90;;;;;;5033072;28;20457;-82
2022/04/15 04:27:37;;;;;;;0.67;0.67;;;10.90;99.90;;;;;;5033596;28;20450;-82
2022/04/15 04:30:04;;;;;;;1.27;1.00;;;10.90;99.90;;;;;;5032958;28;20532;-82
2022/04/15 04:32:33;;;;;;;0.90;0.80;;;10.90;99.90;;;;;;5032913;28;20473;-82
2022/04/15 04:35:00;;;;;;;0.83;0.50;;;10.80;99.90;;;;;;5032949;28;20447;-82
2022/04/15 04:37:27;;;;;;;0.50;0.50;;;10.80;99.90;;;;;;5032970;28;20443;-83
2022/04/15 04:39:53;;;;;;;0.97;0.53;;;10.80;99.90;;;;;;5036706;28;20449;-82
2022/04/15 04:42:22;;;;;;;0.57;0.40;;;10.80;99.90;;;;;;5036866;28;20470;-83
2022/04/15 04:44:49;;;;;;;0.80;0.33;;;10.80;99.90;;;;;;5036305;28;20482;-83
2022/04/15 04:47:16;;;;;;;0.47;0.40;;;10.80;99.90;;;;;;5036813;28;20450;-82
2022/04/15 04:49:44;;;;;;;0.40;0.40;;;10.70;99.90;;;;;;5036187;28;21012;-82
2022/04/15 04:52:11;;;;;;;0.70;0.30;;;10.80;99.90;;;;;;5036450;28;20835;-82
2022/04/15 04:54:38;;;;;;;1.87;0.50;;;10.80;99.90;;;;;;5036419;28;20804;-83
2022/04/15 04:57:05;;;;;;;2.10;0.40;;;10.80;99.90;;;;;;5036352;28;20446;-81
2022/04/15 04:59:33;;;;;;;0.40;0.40;;;10.80;99.90;;;;;;5036350;28;20450;-82
2022/04/15 05:02:00;;;;;;;0.77;0.77;;;10.80;99.90;;;;;;5036253;28;20467;-82
2022/04/15 05:04:27;;;;;;;1.67;1.57;;;10.90;99.90;;;;;;5036233;28;20446;-82
2022/04/15 05:06:55;;;;;;;2.20;0.40;;;10.90;99.90;;;;;;5036354;28;20461;-82
2022/04/15 05:09:22;;;;;;;0.80;0.53;;;10.90;99.90;;;;;;5036208;28;20443;-82
2022/04/15 05:11:49;;;;;;;0.40;0.30;;;11.00;99.90;;;;;;5035677;28;20501;-82
2022/04/15 05:14:17;;;;;;;1.47;0.40;;;11.00;99.90;;;;;;5036047;28;20457;-82
2022/04/15 05:16:44;;;;;;;0.40;0.40;;;11.10;99.90;;;;;;5036198;28;20524;-82
2022/04/15 05:19:11;;;;;;;1.93;0.70;;;11.20;99.90;;;;;;5035678;28;20446;-82
2022/04/15 05:21:38;;;;;;;1.70;0.50;;;11.30;99.90;;;;;;5035886;28;20493;-82
2022/04/15 05:24:07;;;;;;;2.40;0.60;;;11.30;99.90;;;;;;5035942;28;20447;-82
2022/04/15 05:26:34;;;;;;;0.87;0.50;;;11.40;99.90;;;;;;5035890;28;20526;-82
2022/04/15 05:29:01;;;;;;;0.97;0.40;;;11.50;99.90;;;;;;5035567;28;20926;-82
2022/04/15 05:31:27;;;;;;;0.70;0.60;;;11.60;99.90;;;;;;5035614;28;20499;-82
2022/04/15 05:33:54;;;;;;;1.50;0.80;;;11.60;99.90;;;;;;5035759;28;20453;-82
2022/04/15 05:36:21;;;;;;;0.43;0.43;;;11.70;99.90;;;;;;5035422;28;20451;-81
2022/04/15 05:38:48;;;;;;;0.40;0.40;;;11.80;99.90;;;;;;5035459;28;20446;-82
2022/04/15 05:41:16;;;;;;;0.97;0.70;;;11.90;99.90;;;;;;5035222;28;20830;-82
2022/04/15 05:43:43;;;;;;;0.37;0.30;;;12.00;99.90;;;;;;5035277;28;20490;-81
2022/04/15 05:46:09;;;;;;;0.57;0.57;;;12.10;99.90;;;;;;5035132;28;20811;-82
2022/04/15 05:48:36;;;;;;;1.30;1.13;;;12.20;99.90;;;;;;5035244;28;20945;-82
2022/04/15 05:51:03;;;;;;;1.07;0.50;;;12.30;99.90;;;;;;5034862;28;20497;-82
2022/04/15 05:53:30;;;;;;;1.33;0.63;;;12.40;99.90;;;;;;5035372;28;20446;-81
2022/04/15 05:55:57;;;;;;;0.40;0.40;;;12.50;99.90;;;;;;5035311;28;20462;-82
2022/04/15 05:58:25;;;;;;;0.60;0.40;;;12.60;99.90;;;;;;5035346;28;20454;-82
2022/04/15 06:00:52;;;;;;;0.77;0.57;;;12.70;99.90;;;;;;5034895;28;20454;-81
2022/04/15 06:03:20;;;;;;;0.40;0.40;;;12.70;99.90;;;;;;5034800;28;20832;-82
2022/04/15 06:05:47;;;;;;;3.20;0.80;;;12.80;99.90;;;;;;5035221;28;20455;-82
2022/04/15 06:08:13;;;;;;;1.10;0.60;;;12.90;99.90;;;;;;5035089;28;20449;-81
2022/04/15 06:10:40;;;;;;;1.27;0.97;;;13.10;99.90;;;;;;5035117;28;20489;-81
2022/04/15 06:13:13;;;;;;;1.40;1.40;;;13.20;99.90;;;;;;5034962;28;20450;-81
2022/04/15 06:15:51;;;;;;;0.80;0.77;;;13.40;99.90;;;;;;5034742;28;20442;-81
2022/04/15 06:18:18;;;;;;;4.17;0.80;;;13.50;99.90;;;;;;5034944;28;20492;-81
2022/04/15 06:20:45;;;;;;;1.80;0.80;;;13.60;99.90;;;;;;5034796;28;20467;-81
2022/04/15 06:23:12;;;;;;;0.90;0.63;;;13.80;99.90;;;;;;5034725;28;20450;-81
2022/04/15 06:25:39;;;;;;;1.83;0.70;;;14.00;99.90;;;;;;5034438;28;20968;-80
2022/04/15 06:28:06;;;;;;;1.53;0.87;;;14.30;99.90;;;;;;5034728;28;20433;-81
2022/04/15 06:30:33;;;;;;;7.23;1.17;;;14.70;99.90;;;;;;5034265;28;20860;-81
2022/04/15 06:33:01;;;;;;;1.23;0.70;;;15.10;99.90;;;;;;5034271;28;20938;-80
2022/04/15 06:35:28;;;;;;;1.33;0.90;;;15.40;99.90;;;;;;5034553;28;20450;-80
2022/04/15 06:37:54;;;;;;;0.80;0.80;;;15.70;99.90;;;;;;5034535;28;20434;-80
2022/04/15 06:40:21;;;;;;;2.23;0.97;;;16.10;99.90;;;;;;5034091;28;20446;-80
2022/04/15 06:42:48;;;;;;;0.77;0.77;;;16.40;99.90;;;;;;5034947;28;20443;-80
2022/04/15 06:45:15;;;;;;;1.33;1.03;;;16.80;99.90;;;;;;5033997;28;20478;-80
2022/04/15 06:47:41;;;;;;;2.43;0.60;;;17.10;99.90;;;;;;5034026;28;20443;-80
2022/04/15 06:50:10;;;;;;;1.27;0.80;;;17.30;99.90;;;;;;5034267;28;20467;-80
2022/04/15 06:52:37;;;;;;;1.93;0.93;;;17.40;99.90;;;;;;5034028;28;20459;-80
2022/04/15 06:55:04;;;;;;;6.57;1.67;;;17.80;99.90;;;;;;5034195;28;20792;-80
2022/04/15 06:57:32;;;;;;;1.17;1.17;;;18.40;99.90;;;;;;5034144;28;20462;-81
2022/04/15 06:59:58;;;;;;;2.93;1.20;;;18.70;99.90;;;;;;5034077;28;20459;-80
2022/04/15 07:02:26;;;;;;;1.47;1.30;;;19.20;99.90;;;;;;5032850;28;20465;-80
2022/04/15 07:04:53;;;;;;;2.33;1.57;;;19.50;99.90;;;;;;5034004;28;20457;-80
2022/04/15 07:07:21;;;;;;;2.80;1.20;;;19.70;99.90;;;;;;5034002;28;20465;-81
2022/04/15 07:09:49;;;;;;;3.47;1.70;;;19.70;99.90;;;;;;5033950;28;20446;-80
2022/04/15 07:12:17;;;;;;;2.33;1.37;;;19.70;99.90;;;;;;5033772;28;20543;-80
2022/04/15 07:14:44;;;;;;;2.80;1.60;;;19.80;99.90;;;;;;5033925;28;20450;-80
2022/04/15 07:17:10;;;;;;;3.23;1.60;;;20.20;99.90;;;;;;5033843;28;20449;-80
2022/04/15 07:19:38;;;;;;;3.30;1.80;;;20.70;99.90;;;;;;5033793;28;20450;-81
2022/04/15 07:22:06;;;;;;;4.05;2.30;;;21.40;99.90;;;;;;5033744;28;20245;-81
2022/04/15 07:24:34;;;;;;;4.50;2.58;;;22.00;99.90;;;;;;5033395;28;20203;-81
2022/04/15 07:27:01;;;;;;;5.65;3.03;;;22.50;99.90;;;;;;5033386;28;20670;-81
2022/04/15 07:29:30;;;;;;;3.72;1.98;;;22.80;99.90;;;;;;5033265;28;20653;-81
2022/04/15 07:31:57;;;;;;;3.60;2.60;;;23.40;98.70;;;;;;5033488;28;20281;-81
2022/04/15 07:34:23;;;;;;;3.30;2.28;;;24.00;95.60;;;;;;5033368;28;20689;-83
2022/04/15 07:36:54;;;;;;;3.47;2.10;;;24.00;94.70;;;;;;5033559;28;20208;-82
2022/04/15 07:39:22;;;;;;;6.85;2.60;;;24.20;92.80;;;;;;5033336;28;20188;-82
2022/04/15 07:41:51;;;;;;;2.50;1.90;;;24.90;90.60;;;;;;5033407;28;20223;-82
2022/04/15 07:44:19;;;;;;;4.95;3.35;;;25.00;88.70;;;;;;5033348;28;20235;-82
2022/04/15 07:46:46;;;;;;;4.55;2.67;;;25.00;85.50;;;;;;5033436;28;20211;-82
2022/04/15 07:49:13;;;;;;;3.85;2.97;;;24.90;84.00;;;;;;5033436;28;20206;-82
2022/04/15 07:51:40;;;;;;;5.35;2.88;;;25.20;83.80;;;;;;5033261;28;20239;-82
2022/04/15 07:54:08;;;;;;;5.45;2.38;;;25.50;81.50;;;;;;5033411;28;20196;-82
2022/04/15 07:56:35;;;;;;;5.88;2.97;;;25.60;78.50;;;;;;5033333;28;20262;-82
2022/04/15 07:59:04;;;;;;;4.72;2.45;;;25.80;76.80;;;;;;5033298;28;20212;-82
2022/04/15 08:01:31;;;;;;;4.00;2.35;;;26.30;73.00;;;;;;5032938;28;20223;-82
2022/04/15 08:03:59;;;;;;;5.97;2.85;;;26.50;71.60;;;;;;5033002;28;20567;-82
2022/04/15 08:06:28;;;;;;;4.68;2.88;;;26.50;69.00;;;;;;5033173;28;20203;-82
2022/04/15 08:08:55;;;;;;;5.07;2.47;;;26.20;69.50;;;;;;5033201;28;20204;-82
2022/04/15 08:11:22;;;;;;;6.05;3.38;;;26.30;68.20;;;;;;5032795;28;20593;-82
2022/04/15 08:13:49;;;;;;;5.47;2.65;;;26.10;68.00;;;;;;5035809;28;20218;-82
2022/04/15 08:16:17;;;;;;;2.85;2.60;;;25.80;68.50;;;;;;5037175;28;20214;-82
2022/04/15 08:18:44;;;;;;;5.15;2.67;;;25.30;70.80;;;;;;5037171;28;20209;-82
2022/04/15 08:21:11;;;;;;;3.13;2.88;;;25.00;71.60;;;;;;5037043;28;20225;-82
2022/04/15 08:23:39;;;;;;;2.67;2.47;;;24.90;70.90;;;;;;5036896;28;20653;-82
2022/04/15 08:26:06;;;;;;;4.13;2.75;;;24.60;71.30;;;;;;5036686;28;20216;-81
2022/04/15 08:28:32;;;;;;;3.25;2.65;;;24.60;71.40;;;;;;5037206;28;20220;-82
2022/04/15 08:30:59;;;;;;;2.83;2.22;;;24.20;72.10;;;;;;5036567;28;20239;-82
2022/04/15 08:33:27;;;;;;;4.25;2.33;;;24.00;74.60;;;;;;5036528;28;20567;-82
2022/04/15 08:35:54;;;;;;;4.78;2.88;;;23.90;73.70;;;;;;5036499;28;20680;-82
2022/04/15 08:38:21;;;;;;;2.80;2.58;;;24.00;73.90;;;;;;5036731;28;20214;-81
2022/04/15 08:40:50;;;;;;;3.42;1.98;;;24.20;71.50;;;;;;5036698;28;20224;-81
2022/04/15 08:43:17;;;;;;;2.65;2.33;;;24.20;70.50;;;;;;5036499;28;20207;-81
2022/04/15 08:45:47;;;;;;;5.85;3.50;;;24.30;71.20;;;;;;5036652;28;20192;-82
2022/04/15 08:48:14;;;;;;;4.30;2.65;;;24.40;70.30;;;;;;5036894;28;20631;-82
2022/04/15 08:50:42;;;;;;;6.20;3.13;;;24.90;69.60;;;;;;5036411;28;20225;-82
2022/04/15 08:53:10;;;;;;;3.17;2.10;;;25.50;66.80;;;;;;5036149;28;20687;-81
2022/04/15 08:55:36;;;;;;;5.78;2.30;;;26.00;65.90;;;;;;5036171;28;20190;-81
2022/04/15 08:58:04;;;;;;;2.55;2.33;;;26.40;65.70;;;;;;5036592;28;20197;-81
2022/04/15 09:00:32;;;;;;;3.10;2.00;;;26.40;63.90;;;;;;5036296;28;20232;-82
2022/04/15 09:02:58;;;;;;;2.53;2.33;;;25.90;62.80;;;;;;5036339;28;20569;-82
2022/04/15 09:05:27;;;;;;;4.20;3.70;;;24.90;65.50;;;;;;5036063;28;20694;-80
2022/04/15 09:08:04;;;;;;;3.88;2.55;;;24.80;69.10;;;;;;5036251;28;20277;-81
2022/04/15 09:10:33;;;;;;;4.10;3.00;;;25.10;67.60;;;;;;5036128;28;20231;-80
2022/04/15 09:13:00;;;;;;;4.20;2.70;;;26.10;65.30;;;;;;5035732;28;20715;-81
2022/04/15 09:15:27;;;;;;;2.95;2.55;;;26.50;63.90;;;;;;5036121;28;20211;-80
2022/04/15 09:17:54;;;;;;;5.68;2.83;;;26.80;62.60;;;;;;5036106;28;20195;-81
2022/04/15 09:20:22;;;;;;;5.93;2.85;;;27.10;60.00;;;;;;5035995;28;20245;-81
2022/04/15 09:22:54;;;;;;;6.00;4.00;;;27.10;61.50;;;;;;5035988;28;20182;-81
2022/04/15 09:25:26;;;;;;;6.30;3.33;;;27.40;60.80;;;;;;5034903;28;20222;-81
2022/04/15 09:27:56;;;;;;;6.68;3.22;;;27.60;59.80;;;;;;5035938;28;20184;-81
2022/04/15 09:30:33;;;;;;;7.43;2.92;;;27.80;59.50;;;;;;5035476;28;20256;-81
2022/04/15 09:33:02;;;;;;;5.95;2.92;;;28.20;56.70;;;;;;5035461;28;20633;-81
2022/04/15 09:35:29;;;;;;;4.95;2.75;;;28.00;56.50;;;;;;5035722;28;20624;-81
2022/04/15 09:38:03;;;;;;;3.85;2.38;;;27.80;57.40;;;;;;5035710;28;20234;-81
2022/04/15 09:40:35;;;;;;;3.20;2.90;;;27.50;56.50;;;;;;5035279;28;20738;-81
2022/04/15 09:43:04;;;;;;;2.53;2.22;;;27.60;57.40;;;;;;5035440;28;20634;-80
2022/04/15 09:45:34;;;;;;;5.25;3.00;;;27.30;56.90;;;;;;5035573;28;20213;-81
2022/04/15 09:48:02;;;;;;;3.63;2.25;;;26.60;57.90;;;;;;5035491;28;20238;-81
2022/04/15 09:50:31;;;;;;;2.53;2.33;;;26.10;60.50;;;;;;5035455;28;20188;-81
2022/04/15 09:53:09;;;;;;;3.28;2.78;;;25.60;60.50;;;;;;5035319;28;20228;-81
2022/04/15 09:55:40;;;;;;;4.53;3.13;;;25.20;62.10;;;;;;5035461;28;20199;-81
2022/04/15 09:58:10;;;;;;;6.18;2.90;;;25.30;59.80;;;;;;5035370;28;20219;-81
2022/04/15 10:00:38;;;;;;;3.13;2.60;;;25.60;61.10;;;;;;5035309;28;20254;-81
2022/04/15 10:03:08;;;;;;;3.17;2.92;;;26.00;59.50;;;;;;5035205;28;20200;-81
2022/04/15 10:05:36;;;;;;;3.90;2.85;;;26.00;59.00;;;;;;5036250;28;20245;-80
2022/04/15 10:08:04;;;;;;;3.65;2.75;;;26.20;57.30;;;;;;5035389;28;20192;-81
2022/04/15 10:10:32;;;;;;;4.03;2.72;;;26.40;58.30;;;;;;5035044;28;20235;-81
2022/04/15 10:13:03;;;;;;;6.15;2.20;;;26.40;58.00;;;;;;5035046;28;20261;-81
2022/04/15 10:15:31;;;;;;;3.22;2.40;;;26.50;57.30;;;;;;5034718;28;20238;-81
2022/04/15 10:17:59;;;;;;;2.45;2.25;;;26.40;55.50;;;;;;5034968;28;20234;-81
2022/04/15 10:20:26;;;;;;;2.72;2.42;;;26.20;54.40;;;;;;5034881;28;20199;-81
2022/04/15 10:22:55;;;;;;;2.67;1.88;;;25.90;57.20;;;;;;5034783;28;20580;-81
2022/04/15 10:25:22;;;;;;;3.15;2.38;;;25.90;56.90;;;;;;5034736;28;20210;-79
2022/04/15 10:27:50;;;;;;;2.38;1.95;;;25.60;57.20;;;;;;5034503;28;20200;-81
2022/04/15 10:30:19;;;;;;;3.90;2.40;;;25.80;58.50;;;;;;5034679;28;20195;-81
2022/04/15 10:32:51;;;;;;;3.00;1.77;;;26.10;57.60;;;;;;5034323;28;20283;-81
2022/04/15 10:35:27;;;;;;;3.92;2.08;;;26.10;56.00;;;;;;5034481;28;20214;-81
2022/04/15 10:37:56;;;;;;;1.77;1.65;;;26.10;54.70;;;;;;5034566;28;20198;-81
2022/04/15 10:40:25;;;;;;;2.65;2.17;;;26.00;57.30;;;;;;5034966;28;20627;-81
2022/04/15 10:42:53;;;;;;;2.10;1.88;;;26.00;56.70;;;;;;5034486;28;20199;-81
2022/04/15 10:45:34;;;;;;;1.98;1.83;;;26.30;56.40;;;;;;5033907;28;20246;-81
2022/04/15 10:48:02;;;;;;;2.45;1.38;;;26.60;55.30;;;;;;5034371;28;20183;-81
2022/04/15 10:50:30;;;;;;;1.58;1.42;;;26.50;54.80;;;;;;5034260;28;20195;-81
2022/04/15 10:53:17;;;;;;;1.58;1.27;;;26.60;55.50;;;;;;5034198;28;20220;-81
2022/04/15 10:55:46;;;;;;;3.65;2.05;;;27.00;55.20;;;;;;5034267;28;20190;-81
2022/04/15 10:58:14;;;;;;;5.10;2.20;;;27.40;53.50;;;;;;5034228;28;20229;-81
2022/04/15 11:03:29;;;;;;;1.48;1.38;;;27.00;54.00;;;;;;5033976;28;20182;-81
2022/04/15 11:05:57;;;;;;;1.80;1.70;;;26.50;53.40;;;;;;5034141;28;20187;-81
2022/04/15 11:08:26;;;;;;;2.10;1.95;;;26.30;54.00;;;;;;5034018;28;20191;-80
2022/04/15 11:11:03;;;;;;;1.48;1.38;;;25.80;55.90;;;;;;5033957;28;20227;-81
2022/04/15 11:13:58;;;;;;;2.28;1.50;;;25.10;55.70;;;;;;5033610;28;20804;-81
2022/04/15 11:16:39;;;;;;;2.80;1.30;;;24.60;56.20;;;;;;5033583;28;20187;-81
2022/04/15 11:19:08;;;;;;;1.27;1.05;;;24.40;56.10;;;;;;5033946;28;20552;-81
2022/04/15 11:21:37;;;;;;;2.58;2.28;;;24.00;57.20;;;;;;5033760;28;20228;-81
2022/04/15 11:24:05;;;;;;;2.35;1.40;;;23.80;58.20;;;;;;5033465;28;20705;-81
2022/04/15 11:26:34;;;;;;;4.40;1.13;;;23.70;58.10;;;;;;5033761;28;20203;-80
2022/04/15 11:29:03;;;;;;;4.95;1.40;;;23.70;58.10;;;;;;5033372;28;20679;-81
2022/04/15 11:31:33;;;;;;;3.00;1.65;;;23.60;58.70;;;;;;5033472;28;20227;-80
2022/04/15 11:34:05;;;;;;;1.65;1.52;;;23.40;58.30;;;;;;5033389;28;20191;-80
2022/04/15 11:36:32;;;;;;;1.92;1.83;;;23.20;58.70;;;;;;5033645;28;20565;-81
2022/04/15 11:39:02;;;;;;;1.52;1.42;;;23.10;58.70;;;;;;5033642;28;20190;-81
2022/04/15 11:41:29;;;;;;;2.65;1.00;;;22.90;60.10;;;;;;5033529;28;20228;-81
2022/04/15 11:43:59;;;;;;;1.27;1.17;;;22.90;59.30;;;;;;5033377;28;20247;-81
2022/04/15 11:46:26;;;;;;;2.30;1.37;;;22.90;58.40;;;;;;5033463;28;20203;-81
2022/04/15 11:48:56;;;;;;;1.10;1.00;;;22.90;58.30;;;;;;5032831;28;20199;-81
2022/04/15 11:51:24;;;;;;;1.67;1.30;;;22.80;57.80;;;;;;5033317;28;20224;-81
2022/04/15 11:53:51;;;;;;;1.23;1.13;;;22.70;57.70;;;;;;5032980;28;20620;-81
2022/04/15 11:56:20;;;;;;;1.67;1.53;;;22.70;57.20;;;;;;5033329;28;20446;-81
2022/04/15 11:58:47;;;;;;;1.10;1.00;;;22.70;57.90;;;;;;5033352;28;20203;-81
2022/04/15 12:01:26;;;;;;;1.73;1.17;;;22.50;58.20;;;;;;5033210;28;20224;-81
2022/04/15 12:03:54;;;;;;;1.40;1.03;;;22.50;58.70;;;;;;5033335;28;20434;-81
2022/04/15 12:06:22;;;;;;;2.07;0.90;;;22.50;57.80;;;;;;5033005;28;20202;-81
2022/04/15 12:08:49;;;;;;;2.27;1.23;;;22.40;57.70;;;;;;5033232;28;20607;-81
2022/04/15 12:11:19;;;;;;;1.13;1.03;;;22.20;59.70;;;;;;5032816;28;20839;-81
2022/04/15 12:13:46;;;;;;;2.07;1.67;;;22.10;57.50;;;;;;5033169;28;20469;-81
2022/04/15 12:16:13;;;;;;;1.73;1.60;;;21.90;58.70;;;;;;5033162;28;20450;-81
2022/04/15 12:18:40;;;;;;;1.93;1.30;;;21.80;59.80;;;;;;5032813;28;20445;-81
2022/04/15 12:21:08;;;;;;;2.37;1.30;;;21.70;60.00;;;;;;5033029;28;20470;-81
2022/04/15 12:23:35;;;;;;;3.23;2.00;;;21.60;61.30;;;;;;5032986;28;20433;-81
2022/04/15 12:26:09;;;;;;;1.97;1.40;;;21.50;62.60;;;;;;5033319;28;20442;-81
2022/04/15 12:31:27;;;;;;;1.27;1.10;;;21.60;60.80;;;;;;5033031;28;20834;-81
2022/04/15 12:33:54;;;;;;;2.17;1.10;;;21.50;61.10;;;;;;5032915;28;20482;-81
2022/04/15 12:36:22;;;;;;;1.00;0.90;;;21.70;60.60;;;;;;5032983;28;20450;-81
2022/04/15 12:39:00;;;;;;;1.50;1.03;;;21.80;58.70;;;;;;5032967;28;20449;-81
2022/04/15 12:41:38;;;;;;;1.37;1.27;;;21.70;58.40;;;;;;5032597;28;20477;-80
2022/04/15 12:44:14;;;;;;;1.30;1.20;;;21.60;56.90;;;;;;5032733;28;20474;-81
2022/04/15 12:46:43;;;;;;;3.33;1.87;;;21.40;58.70;;;;;;5033157;28;20438;-81
2022/04/15 12:49:22;;;;;;;4.00;0.93;;;21.40;58.90;;;;;;5032955;28;20824;-81
2022/04/15 12:51:50;;;;;;;1.20;0.90;;;21.20;59.30;;;;;;5032840;28;20477;-77
2022/04/15 12:54:17;;;;;;;1.50;1.10;;;21.10;60.90;;;;;;5032855;28;20481;-81
2022/04/15 12:56:54;;;;;;;1.63;1.53;;;21.10;58.40;;;;;;5032852;28;20441;-79
2022/04/15 12:59:22;;;;;;;1.03;0.80;;;21.00;59.50;;;;;;5034274;28;20986;-81